CW6020 Teulada ES current weather conditions

sailwx.info

Wind from 315 at 2 knots gusting 7

Air temperature 18.9° C
Dewpoint 9.1° C

Last reported at 2015-Jan-30 22:46 UTC.
Time now 2015-Jan-30 23:27 UTC

Location: N 38°44' E 000°06'.
View on Google Maps.

See reports from other nearby stations

  
Tides and Currents Weather Stations Pressure Air Temp Water Temp Dewpoint Dewpoint Depression Visibility Wind Speed Wind Dir Waves Ship Positions
date/time (UTC)wind fromknots sea level pressurealtimeterstation pressurevisibilityair tempwater tempwave heightnotes
2015-Jan-30 22:46 315 2 gusting 7 18.9
2015-Jan-30 22:36 225 2 gusting 3 18.9
2015-Jan-30 22:26 270 1 gusting 2 18.9
2015-Jan-30 22:16 225 1 gusting 3 18.9
2015-Jan-30 22:06 202 0 gusting 2 18.9
2015-Jan-30 21:56 315 2 gusting 4 19.4
2015-Jan-30 21:46 315 3 gusting 7 18.9
2015-Jan-30 21:36 225 1 gusting 4 19.4
2015-Jan-30 21:26 045 5 gusting 9 19.4
2015-Jan-30 21:16 315 2 gusting 5 19.4
2015-Jan-30 21:06 270 4 gusting 7 19.4
2015-Jan-30 20:56 337 10 gusting 16 19.4
2015-Jan-30 20:46 225 3 gusting 5 19.4
2015-Jan-30 20:36 225 4 gusting 6 19.4
2015-Jan-30 20:26 270 3 gusting 5 19.4
2015-Jan-30 20:16 247 6 gusting 13 19.4
2015-Jan-30 20:06 270 3 gusting 6 19.4
2015-Jan-30 19:56 337 2 gusting 5 19.4
2015-Jan-30 19:46 315 2 gusting 5 19.4
2015-Jan-30 19:36 315 0 gusting 1 19.4
2015-Jan-30 19:26 315 5 gusting 12 20.0
2015-Jan-30 19:16 180 4 gusting 6 20.0
2015-Jan-30 19:06 315 6 gusting 13 19.4
2015-Jan-30 18:56 225 5 gusting 7 20.0
2015-Jan-30 18:46 225 7 gusting 13 19.4
2015-Jan-30 18:36 247 6 gusting 11 19.4
2015-Jan-30 18:26 225 5 gusting 7 19.4
2015-Jan-30 18:16 270 4 gusting 6 19.4
2015-Jan-30 18:06 315 7 gusting 13 19.4
2015-Jan-30 17:56 292 6 gusting 13 19.4
2015-Jan-30 17:46 315 6 gusting 12 19.4
2015-Jan-30 17:36 315 0 gusting 2 20.0
2015-Jan-30 17:26 045 4 gusting 6 20.0
2015-Jan-30 17:16 270 1 gusting 5 20.0
2015-Jan-30 17:06 315 5 gusting 10 20.6
2015-Jan-30 16:56 20.6
2015-Jan-30 16:46 20.6
2015-Jan-30 16:36 315 2 gusting 5 21.1
2015-Jan-30 16:26 315 5 gusting 7 21.1
2015-Jan-30 16:16 270 4 gusting 7 21.1
2015-Jan-30 16:06 315 5 gusting 9 21.7
2015-Jan-30 15:56 270 5 gusting 7 21.7
2015-Jan-30 15:46 225 3 gusting 5 21.7
2015-Jan-30 15:36 315 2 gusting 4 21.7
2015-Jan-30 15:26 315 3 gusting 5 21.7
2015-Jan-30 15:16 180 2 gusting 5 21.7
2015-Jan-30 15:06 180 3 gusting 8 21.7
2015-Jan-30 14:56 21.7
2015-Jan-30 14:46 315 3 gusting 9 21.7
2015-Jan-30 14:36 315 10 gusting 22 21.7
2015-Jan-30 14:26 315 7 gusting 10 21.7
2015-Jan-30 14:16 247 5 gusting 11 21.7
2015-Jan-30 14:06 292 3 gusting 5 22.2
2015-Jan-30 13:56 180 5 gusting 10 22.2
2015-Jan-30 13:46 22.2
2015-Jan-30 13:36 270 5 gusting 7 22.2
2015-Jan-30 13:24 315 7 gusting 11 22.2
2015-Jan-30 13:11 270 6 gusting 8 22.2
2015-Jan-30 13:01 22.2
2015-Jan-30 12:51 22.2
2015-Jan-30 12:41 270 7 gusting 12 22.2
2015-Jan-30 12:31 315 10 gusting 16 22.2
2015-Jan-30 12:21 292 9 gusting 16 22.2
2015-Jan-30 12:11 225 5 gusting 10 22.2
2015-Jan-30 12:01 225 8 gusting 13 22.2
2015-Jan-30 11:51 090 6 gusting 9 22.2
2015-Jan-30 11:41 045 7 gusting 13 22.2
2015-Jan-30 11:31 270 6 gusting 10 21.7
2015-Jan-30 11:21 315 7 gusting 13 21.7
2015-Jan-30 11:11 21.7
2015-Jan-30 11:01 225 2 gusting 5 21.1
2015-Jan-30 10:51 270 8 gusting 14 21.1
2015-Jan-30 10:41 225 5 gusting 7 21.1
2015-Jan-30 10:31 20.6
2015-Jan-30 10:21 225 5 gusting 7 20.6
2015-Jan-30 10:11 315 2 gusting 4 20.0
2015-Jan-30 10:01 022 3 gusting 6 20.0
2015-Jan-30 09:51 270 2 gusting 4 20.0
2015-Jan-30 09:41 292 3 gusting 10 20.0
2015-Jan-30 09:31 180 2 gusting 6 19.4
2015-Jan-30 09:21 180 4 gusting 9 18.9
2015-Jan-30 09:11 270 1 gusting 3 18.9
2015-Jan-30 09:01 315 7 gusting 13 18.9
2015-Jan-30 08:51 315 2 gusting 4 18.3
2015-Jan-30 08:41 270 6 gusting 13 18.3
2015-Jan-30 08:31 315 5 gusting 7 17.8
2015-Jan-30 08:21 337 5 gusting 7 17.8
2015-Jan-30 08:11 045 3 gusting 6 17.8
2015-Jan-30 08:01 180 4 gusting 9 17.8
2015-Jan-30 07:51 315 2 gusting 4 17.2
2015-Jan-30 07:41 17.2
2015-Jan-30 07:31 292 5 gusting 9 17.2
2015-Jan-30 07:21 225 2 gusting 6 17.2
2015-Jan-30 07:11 315 3 gusting 5 17.2
2015-Jan-30 07:01 315 6 gusting 10 16.7
2015-Jan-30 06:51 16.7
2015-Jan-30 06:41 270 2 gusting 5 16.7
2015-Jan-30 06:31 315 2 gusting 5 16.7
2015-Jan-30 06:21 270 1 gusting 2 16.7
2015-Jan-30 06:11 315 4 gusting 10 16.7
2015-Jan-30 06:01 315 4 gusting 8 16.7
2015-Jan-30 05:51 180 1 gusting 4 16.7
2015-Jan-30 05:41 17.2
2015-Jan-30 05:31 045 3 gusting 5 16.7
2015-Jan-30 05:21 315 3 gusting 5 17.2
2015-Jan-30 05:11 225 9 gusting 15 17.2
2015-Jan-30 05:01 180 4 gusting 7 17.2
2015-Jan-30 04:51 225 4 gusting 5 17.2
2015-Jan-30 04:41 292 6 gusting 13 17.2
2015-Jan-30 04:31 090 4 gusting 13 17.2
2015-Jan-30 04:21 292 5 gusting 8 17.2
2015-Jan-30 04:11 315 3 gusting 7 17.2
2015-Jan-30 04:01 270 6 gusting 10 17.2
2015-Jan-30 03:51 225 5 gusting 8 17.2
2015-Jan-30 03:41 270 4 gusting 6 17.2
2015-Jan-30 03:31 180 5 gusting 8 16.7
2015-Jan-30 03:21 315 3 gusting 7 16.7
2015-Jan-30 03:11 225 16.7
2015-Jan-30 03:01 225 2 gusting 5 16.7
2015-Jan-30 02:51 180 4 gusting 7 17.2
2015-Jan-30 02:41 315 7 gusting 10 16.7
2015-Jan-30 02:31 135 1 gusting 5 16.7
2015-Jan-30 02:21 247 8 gusting 17 16.7
2015-Jan-30 02:11 315 5 gusting 9 16.7
2015-Jan-30 02:01 180 2 gusting 5 16.7
2015-Jan-30 01:51 292 3 gusting 6 16.7
2015-Jan-30 01:41 315 5 gusting 6 16.7
2015-Jan-30 01:31 16.7
2015-Jan-30 01:21 270 2 gusting 4 16.7
2015-Jan-30 01:11 292 3 gusting 5 16.7
2015-Jan-30 01:01 225 2 gusting 2 16.7
2015-Jan-30 00:51 270 4 gusting 6 16.7
2015-Jan-30 00:41 315 6 gusting 12 16.7
2015-Jan-30 00:31 225 3 gusting 7 16.7
2015-Jan-30 00:21 315 2 gusting 4 16.7
2015-Jan-30 00:11 315 5 gusting 9 16.7
2015-Jan-30 00:01 225 7 gusting 12 16.7
2015-Jan-29 23:51 270 6 gusting 14 16.7
2015-Jan-29 23:41 270 5 gusting 10 16.7
2015-Jan-29 23:31 270 6 gusting 13 16.7
2015-Jan-29 23:21 315 3 gusting 5 16.7
2015-Jan-29 23:11 315 6 gusting 7 17.2
2015-Jan-29 23:01 225 4 gusting 7 17.2
2015-Jan-29 22:51 17.2
2015-Jan-29 22:41 315 2 gusting 4 16.7
2015-Jan-29 22:31 315 4 gusting 6 16.7
2015-Jan-29 22:21 315 2 gusting 5 16.7
2015-Jan-29 22:11 315 2 gusting 5 16.7
2015-Jan-29 22:01 225 0 gusting 3 16.7
2015-Jan-29 21:51 315 2 gusting 4 16.7
2015-Jan-29 21:41 315 2 gusting 2 16.7
2015-Jan-29 21:31 270 2 gusting 5 16.7
2015-Jan-29 21:21 315 5 gusting 7 16.7
2015-Jan-29 21:11 225 5 gusting 6 16.7
2015-Jan-29 21:01 292 1 gusting 2 16.7
2015-Jan-29 20:51 270 1 gusting 3 16.7
2015-Jan-29 20:41 270 2 gusting 3 16.1
2015-Jan-29 20:31 315 0 gusting 2 16.7
2015-Jan-29 20:21 022 2 gusting 5 16.7
2015-Jan-29 20:11 225 2 gusting 6 17.2
2015-Jan-29 20:01 270 2 gusting 4 17.2
2015-Jan-29 19:51 045 5 gusting 9 17.8
2015-Jan-29 19:41 315 4 gusting 10 17.2
2015-Jan-29 19:31 270 1 gusting 2 17.2
2015-Jan-29 19:21 17.2
2015-Jan-29 19:11 270 2 gusting 3 17.8
2015-Jan-29 19:01 270 6 gusting 6 17.8
2015-Jan-29 18:51 315 0 gusting 2 18.3
2015-Jan-29 18:41 045 1 gusting 4 18.3
2015-Jan-29 18:31 225 3 gusting 7 17.8
2015-Jan-29 18:21 292 5 gusting 10 17.2
2015-Jan-29 18:11 270 2 gusting 7 14.4
2015-Jan-29 18:01 270 14.4
2015-Jan-29 17:51 270 14.4
2015-Jan-29 17:41 14.4
2015-Jan-29 17:32 045 14.4
2015-Jan-29 17:21 15.0
2015-Jan-29 17:11 15.0
2015-Jan-29 17:01 067 0 gusting 1 15.6
2015-Jan-29 16:52 135 15.6
2015-Jan-29 16:41 15.6
2015-Jan-29 16:31 180 0 gusting 2 16.1
2015-Jan-29 16:21 270 0 gusting 2 16.7
2015-Jan-29 16:11 270 4 gusting 6 17.2
2015-Jan-29 16:01 270 1 gusting 2 18.3
2015-Jan-29 15:51 315 18.9
2015-Jan-29 15:41 180 3 gusting 6 19.4
2015-Jan-29 15:31 180 0 gusting 1 20.0
2015-Jan-29 15:21 090 20.6
2015-Jan-29 15:06 225 2 gusting 5 21.7
2015-Jan-29 14:56 180 1 gusting 2 21.7
2015-Jan-29 14:46 270 2 gusting 5 21.7
2015-Jan-29 14:36 225 1 gusting 2 22.2
2015-Jan-29 14:26 180 3 gusting 7 22.8
2015-Jan-29 14:16 180 5 gusting 6 22.2
2015-Jan-29 14:06 180 1 gusting 2 22.2
2015-Jan-29 13:56 225 2 gusting 6 22.2
2015-Jan-29 13:46 315 2 gusting 3 22.2
2015-Jan-29 13:36 315 2 gusting 5 22.8
2015-Jan-29 13:26 315 2 gusting 3 22.8
2015-Jan-29 13:16 180 2 gusting 4 22.8
2015-Jan-29 13:06 225 1 gusting 3 22.8
2015-Jan-29 12:56 180 2 gusting 5 22.8
2015-Jan-29 12:46 135 0 gusting 2 22.2
2015-Jan-29 12:36 180 3 gusting 4 21.7
2015-Jan-29 12:26 180 2 gusting 5 21.1
2015-Jan-29 12:16 21.7
2015-Jan-29 12:06 225 2 gusting 5 21.1
2015-Jan-29 11:57 135 2 gusting 4 20.6
2015-Jan-29 11:46 090 0 gusting 2 21.1
2015-Jan-29 11:36 225 1 gusting 2 21.1
2015-Jan-29 11:26 045 20.6
2015-Jan-29 11:16 135 4 gusting 5 20.6
2015-Jan-29 11:06 292 2 gusting 3 20.0
2015-Jan-29 10:56 090 0 gusting 2 20.0
2015-Jan-29 10:46 045 0 gusting 1 20.0
2015-Jan-29 10:36 180 4 gusting 5 18.9
2015-Jan-29 10:26 135 2 gusting 4 18.9
2015-Jan-29 10:16 180 5 gusting 7 17.8
2015-Jan-29 10:06 315 2 gusting 3 17.2
2015-Jan-29 09:56 315 2 gusting 3 17.2
2015-Jan-29 09:46 315 4 gusting 5 17.2
2015-Jan-29 09:36 270 3 gusting 5 17.2
2015-Jan-29 09:26 225 5 gusting 8 16.7
2015-Jan-29 09:16 135 3 gusting 5 16.7
2015-Jan-29 09:06 270 2 gusting 3 16.1
2015-Jan-29 08:56 292 5 gusting 8 15.6
2015-Jan-29 08:46 15.0
2015-Jan-29 08:36 15.0
2015-Jan-29 08:26 15.0
2015-Jan-29 08:16 292 2 gusting 4 15.0
2015-Jan-29 08:06 315 2 gusting 6 14.4
2015-Jan-29 07:56 315 0 gusting 2 14.4
2015-Jan-29 07:46 270 2 gusting 4 13.9
2015-Jan-29 07:36 225 2 gusting 4 13.3
2015-Jan-29 07:26 180 3 gusting 5 12.8
2015-Jan-29 07:16 045 2 gusting 5 12.8
2015-Jan-29 07:06 12.2
2015-Jan-29 06:56 315 2 gusting 5 12.2
2015-Jan-29 06:46 12.2
2015-Jan-29 05:46 8.9
2015-Jan-29 05:36 067 9.4
2015-Jan-29 05:26 8.9
2015-Jan-29 05:16 135 0 gusting 1 8.3
2015-Jan-29 05:06 135 7.8
2015-Jan-29 04:56 7.8
2015-Jan-29 04:46 135 8.3
2015-Jan-29 04:36 045 8.9
2015-Jan-29 04:26 8.9
2015-Jan-29 04:16 9.4
2015-Jan-29 04:06 9.4
2015-Jan-29 03:56 315 9.4
2015-Jan-29 03:46 315 0 gusting 1 8.9
2015-Jan-29 03:36 135 9.4
2015-Jan-29 03:26 090 9.4
2015-Jan-29 03:16 135 0 gusting 2 10.0
2015-Jan-29 03:06 135 11.1
2015-Jan-29 02:56 315 0 gusting 1 11.1
2015-Jan-29 02:46 10.6
2015-Jan-29 02:36 090 10.0
2015-Jan-29 02:26 9.4
2015-Jan-29 02:16 315 8.3
2015-Jan-29 02:06 7.2
2015-Jan-29 01:56 045 0 gusting 2 6.7
2015-Jan-29 01:46 135 0 gusting 1 6.1
2015-Jan-29 01:36 5.6
2015-Jan-29 01:26 090 0 gusting 2 5.6
2015-Jan-29 01:16 090 5.6
2015-Jan-29 01:06 135 6.1
2015-Jan-29 00:56 135 6.1
2015-Jan-29 00:46 045 6.1
2015-Jan-29 00:36 6.7
2015-Jan-29 00:26 090 6.7
2015-Jan-29 00:16 090 6.7
2015-Jan-29 00:06 6.7
2015-Jan-28 23:56 135 7.2
2015-Jan-28 23:46 135 6.7
2015-Jan-28 23:36 7.2
2015-Jan-28 23:26 7.2
2015-Jan-28 23:16 7.2
2015-Jan-28 23:06 7.2